createdAt,value
2022-12-18T00:02:26.138Z,18.59
2022-12-18T00:04:52.607Z,18.58
2022-12-18T00:07:19.022Z,18.62
2022-12-18T00:09:45.444Z,18.62
2022-12-18T00:14:57.504Z,18.68
2022-12-18T00:17:24.723Z,18.58
2022-12-18T00:19:51.100Z,18.59
2022-12-18T00:22:18.367Z,18.54
2022-12-18T00:24:45.650Z,18.62
2022-12-18T00:29:57.036Z,18.58
2022-12-18T00:32:24.255Z,18.62
2022-12-18T00:34:52.601Z,18.60
2022-12-18T00:37:20.409Z,18.65
2022-12-18T00:39:47.794Z,18.59
2022-12-18T00:44:58.074Z,18.59
2022-12-18T00:47:24.468Z,18.54
2022-12-18T00:49:50.780Z,18.57
2022-12-18T00:52:18.008Z,18.59
2022-12-18T00:54:44.423Z,18.57
2022-12-18T00:57:11.632Z,18.61
2022-12-18T00:59:38.016Z,18.59
2022-12-18T01:02:04.514Z,18.55
2022-12-18T01:04:30.964Z,18.55
2022-12-18T01:06:57.324Z,18.56
2022-12-18T01:09:25.567Z,18.55
2022-12-18T01:11:51.959Z,18.57
2022-12-18T01:14:19.200Z,18.58
2022-12-18T01:16:45.578Z,18.57
2022-12-18T01:19:12.844Z,18.59
2022-12-18T01:21:39.169Z,18.59
2022-12-18T01:24:06.429Z,18.58
2022-12-18T01:26:33.626Z,18.59
2022-12-18T01:29:02.794Z,18.59
2022-12-18T01:31:29.218Z,18.61
2022-12-18T01:33:55.656Z,18.54
2022-12-18T01:36:22.057Z,18.58
2022-12-18T01:38:48.401Z,18.58
2022-12-18T01:41:17.508Z,18.55
2022-12-18T01:43:43.929Z,18.56
2022-12-18T01:46:11.204Z,18.62
2022-12-18T01:48:38.430Z,18.61
2022-12-18T01:51:05.822Z,18.59
2022-12-18T01:53:32.244Z,18.55
2022-12-18T01:55:58.561Z,18.56
2022-12-18T01:58:25.813Z,18.54
2022-12-18T02:00:52.696Z,18.55
2022-12-18T02:03:19.171Z,18.52
2022-12-18T02:05:48.392Z,18.51
2022-12-18T02:08:15.594Z,18.62
2022-12-18T02:10:42.826Z,18.55
2022-12-18T02:13:09.328Z,18.63
2022-12-18T02:18:29.674Z,18.56
2022-12-18T02:20:56.100Z,18.57
2022-12-18T02:23:22.448Z,18.52
2022-12-18T02:25:48.796Z,18.58
2022-12-18T02:28:15.183Z,18.57
2022-12-18T02:33:25.559Z,18.58
2022-12-18T02:35:51.883Z,18.56
2022-12-18T02:38:18.235Z,18.61
2022-12-18T02:40:45.444Z,18.56
2022-12-18T02:43:12.686Z,18.63
2022-12-18T02:48:23.771Z,18.65
2022-12-18T02:50:50.105Z,18.63
2022-12-18T02:53:16.433Z,18.60
2022-12-18T02:55:42.751Z,18.61
2022-12-18T02:58:09.978Z,18.59
2022-12-18T03:03:30.095Z,18.55
2022-12-18T03:05:56.513Z,18.52
2022-12-18T03:08:22.819Z,18.57
2022-12-18T03:10:49.152Z,18.54
2022-12-18T03:13:15.502Z,18.60
2022-12-18T03:18:25.769Z,18.50
2022-12-18T03:20:52.113Z,18.55
2022-12-18T03:23:18.493Z,18.52
2022-12-18T03:25:44.812Z,18.60
2022-12-18T03:28:11.140Z,18.57
2022-12-18T03:33:31.671Z,18.60
2022-12-18T03:35:57.995Z,18.55
2022-12-18T03:38:24.326Z,18.59
2022-12-18T03:40:50.651Z,18.57
2022-12-18T03:43:16.961Z,18.56
2022-12-18T03:48:37.360Z,18.54
2022-12-18T03:51:03.762Z,18.59
2022-12-18T03:53:30.069Z,18.53
2022-12-18T03:55:56.374Z,18.56
2022-12-18T03:58:22.688Z,18.52
2022-12-18T04:03:32.823Z,18.59
2022-12-18T04:05:59.529Z,18.53
2022-12-18T04:08:25.870Z,18.57
2022-12-18T04:10:52.203Z,18.53
2022-12-18T04:13:18.537Z,18.59
2022-12-18T04:18:29.024Z,18.50
2022-12-18T04:20:55.349Z,18.53
2022-12-18T04:23:22.097Z,18.54
2022-12-18T04:25:48.939Z,18.53
2022-12-18T04:28:15.283Z,18.54
2022-12-18T04:33:35.417Z,18.62
2022-12-18T04:36:01.733Z,18.58
2022-12-18T04:38:28.041Z,18.60
2022-12-18T04:40:54.416Z,18.60
2022-12-18T04:43:20.773Z,18.62
2022-12-18T04:48:30.869Z,18.60
2022-12-18T04:50:57.179Z,18.56
2022-12-18T04:53:23.582Z,18.60
2022-12-18T04:55:49.905Z,18.56
2022-12-18T04:58:16.225Z,18.56
2022-12-18T05:00:42.595Z,18.55
2022-12-18T05:03:08.920Z,18.54
2022-12-18T05:05:35.232Z,18.51
2022-12-18T05:08:01.566Z,18.56
2022-12-18T05:10:29.048Z,18.54
2022-12-18T05:12:57.530Z,18.54
2022-12-18T05:15:23.834Z,18.56
2022-12-18T05:17:50.187Z,18.51
2022-12-18T05:20:16.521Z,18.52
2022-12-18T05:22:42.831Z,18.50
2022-12-18T05:25:10.040Z,18.51
2022-12-18T05:27:36.377Z,18.50
2022-12-18T05:30:02.716Z,18.53
2022-12-18T05:32:29.039Z,18.58
2022-12-18T05:34:55.372Z,18.54
2022-12-18T05:37:21.671Z,18.55
2022-12-18T05:39:47.978Z,18.54
2022-12-18T05:42:15.182Z,18.57
2022-12-18T05:44:41.543Z,18.57
2022-12-18T05:47:07.924Z,18.56
2022-12-18T05:49:34.245Z,18.54
2022-12-18T05:52:00.554Z,18.56
2022-12-18T05:54:26.883Z,18.57
2022-12-18T05:56:53.205Z,18.58
2022-12-18T05:59:20.408Z,18.58
2022-12-18T06:01:46.854Z,18.57
2022-12-18T06:04:14.368Z,18.56
2022-12-18T06:06:40.970Z,18.55
2022-12-18T06:09:07.366Z,18.42
2022-12-18T06:11:34.769Z,17.22
2022-12-18T06:14:02.033Z,16.98
2022-12-18T06:16:28.867Z,16.62
2022-12-18T06:21:42.659Z,16.56
2022-12-18T06:24:09.098Z,16.40
2022-12-18T06:26:35.528Z,16.38
2022-12-18T06:29:02.843Z,16.23
2022-12-18T06:31:30.231Z,16.20
2022-12-18T06:36:53.147Z,16.17
2022-12-18T06:39:20.539Z,16.15
2022-12-18T06:41:46.972Z,16.25
2022-12-18T06:44:13.554Z,17.20
2022-12-18T06:46:42.036Z,17.60
2022-12-18T06:51:52.340Z,17.84
2022-12-18T06:54:18.806Z,17.89
2022-12-18T06:56:45.313Z,17.94
2022-12-18T06:59:11.774Z,17.96
2022-12-18T07:01:38.491Z,17.97
2022-12-18T07:06:49.335Z,18.05
2022-12-18T07:09:15.777Z,18.01
2022-12-18T07:11:43.103Z,18.04
2022-12-18T07:14:09.559Z,18.12
2022-12-18T07:16:36.087Z,18.13
2022-12-18T07:21:59.593Z,18.13
2022-12-18T07:24:26.932Z,18.13
2022-12-18T07:26:56.105Z,18.16
2022-12-18T07:29:22.544Z,18.16
2022-12-18T07:31:49.993Z,18.18
2022-12-18T07:37:00.294Z,18.18
2022-12-18T07:39:26.745Z,18.17
2022-12-18T07:41:54.187Z,18.18
2022-12-18T07:44:21.609Z,18.18
2022-12-18T07:46:49.019Z,18.21
2022-12-18T07:52:11.514Z,18.24
2022-12-18T07:54:37.984Z,18.29
2022-12-18T07:57:09.938Z,18.33
2022-12-18T07:59:47.891Z,18.31
2022-12-18T08:02:15.393Z,18.34
2022-12-18T08:07:36.799Z,18.36
2022-12-18T08:10:03.269Z,18.38
2022-12-18T08:12:30.608Z,18.37
2022-12-18T08:14:58.106Z,18.39
2022-12-18T08:17:24.603Z,18.41
2022-12-18T08:22:37.273Z,18.46
2022-12-18T08:25:04.684Z,18.42
2022-12-18T08:27:31.904Z,18.43
2022-12-18T08:29:59.936Z,18.46
2022-12-18T08:32:27.437Z,18.47
2022-12-18T08:37:38.434Z,18.42
2022-12-18T08:40:04.923Z,18.44
2022-12-18T08:42:31.397Z,18.43
2022-12-18T08:44:57.890Z,18.43
2022-12-18T08:47:24.398Z,18.44
2022-12-18T08:52:44.802Z,18.50
2022-12-18T08:55:12.814Z,18.47
2022-12-18T08:57:39.409Z,18.47
2022-12-18T09:00:05.882Z,18.47
2022-12-18T09:02:32.522Z,18.51
2022-12-18T09:07:43.090Z,18.55
2022-12-18T09:10:09.528Z,18.50
2022-12-18T09:12:36.016Z,18.51
2022-12-18T09:15:03.406Z,18.53
2022-12-18T09:17:29.877Z,18.54
2022-12-18T09:22:50.390Z,18.51
2022-12-18T09:25:18.035Z,18.54
2022-12-18T09:27:44.523Z,18.51
2022-12-18T09:30:11.911Z,18.60
2022-12-18T09:32:39.298Z,18.55
2022-12-18T09:38:00.758Z,18.58
2022-12-18T09:40:27.289Z,18.58
2022-12-18T09:42:54.670Z,18.57
2022-12-18T09:45:22.035Z,18.57
2022-12-18T09:47:49.587Z,18.56
2022-12-18T09:53:01.936Z,18.65
2022-12-18T09:55:33.582Z,18.63
2022-12-18T09:58:03.256Z,18.62
2022-12-18T10:00:30.700Z,18.70
2022-12-18T10:02:58.231Z,18.65
2022-12-18T10:05:25.714Z,18.63
2022-12-18T10:07:53.077Z,18.64
2022-12-18T10:10:19.567Z,18.62
2022-12-18T10:12:46.077Z,18.66
2022-12-18T10:15:12.602Z,18.63
2022-12-18T10:17:40.004Z,18.71
2022-12-18T10:20:07.376Z,18.62
2022-12-18T10:22:34.856Z,18.59
2022-12-18T10:25:02.219Z,18.52
2022-12-18T10:27:28.708Z,18.62
2022-12-18T10:29:55.250Z,18.61
2022-12-18T10:32:21.711Z,18.60
2022-12-18T10:34:48.308Z,18.58
2022-12-18T10:37:14.811Z,18.63
2022-12-18T10:39:42.202Z,18.61
2022-12-18T10:42:08.708Z,18.62
2022-12-18T10:44:35.250Z,18.59
2022-12-18T10:47:01.683Z,18.60
2022-12-18T10:49:29.116Z,18.61
2022-12-18T10:51:55.588Z,18.63
2022-12-18T10:54:22.079Z,18.62
2022-12-18T10:56:50.366Z,18.63
2022-12-18T10:59:16.823Z,18.62
2022-12-18T11:01:44.308Z,18.65
2022-12-18T11:04:11.682Z,18.63
2022-12-18T11:06:38.879Z,18.63
2022-12-18T11:09:13.141Z,18.65
2022-12-18T11:11:41.018Z,18.64
2022-12-18T11:14:07.543Z,18.67
2022-12-18T11:16:34.071Z,18.68
2022-12-18T11:19:00.571Z,18.73
2022-12-18T11:21:27.998Z,18.75
2022-12-18T11:26:39.507Z,18.63
2022-12-18T11:29:06.152Z,18.58
2022-12-18T11:31:33.647Z,18.56
2022-12-18T11:34:27.393Z,18.55
2022-12-18T11:36:50.184Z,18.54
2022-12-18T11:42:00.829Z,18.52
2022-12-18T11:44:28.098Z,18.51
2022-12-18T11:46:55.389Z,18.51
2022-12-18T11:49:23.714Z,18.51
2022-12-18T11:51:53.127Z,18.52
2022-12-18T11:57:10.730Z,18.49
2022-12-18T11:59:39.072Z,18.47
2022-12-18T12:02:07.508Z,18.47
2022-12-18T12:04:34.931Z,18.45
2022-12-18T12:07:03.645Z,18.45
2022-12-18T12:12:24.766Z,18.44
2022-12-18T12:14:51.874Z,18.49
2022-12-18T12:17:21.804Z,18.39
2022-12-18T12:19:50.987Z,18.39
2022-12-18T12:22:19.326Z,18.39
2022-12-18T12:27:42.807Z,18.42
2022-12-18T12:30:10.393Z,18.38
2022-12-18T12:32:40.479Z,18.33
2022-12-18T12:35:09.908Z,18.31
2022-12-18T12:37:36.590Z,18.29
2022-12-18T12:42:47.674Z,18.20
2022-12-18T12:45:14.104Z,18.23
2022-12-18T12:47:41.867Z,18.28
2022-12-18T12:50:08.884Z,18.28
2022-12-18T12:52:36.819Z,18.29
2022-12-18T12:57:47.237Z,18.31
2022-12-18T13:00:13.736Z,18.30
2022-12-18T13:02:40.663Z,18.31
2022-12-18T13:05:07.234Z,18.32
2022-12-18T13:07:34.652Z,18.32
2022-12-18T13:12:54.991Z,18.30
2022-12-18T13:15:22.381Z,18.31
2022-12-18T13:17:48.811Z,18.32
2022-12-18T13:20:17.157Z,18.22
2022-12-18T13:22:44.764Z,18.14
2022-12-18T13:28:05.710Z,18.20
2022-12-18T13:30:33.095Z,18.21
2022-12-18T13:33:00.519Z,18.23
2022-12-18T13:35:27.021Z,18.26
2022-12-18T13:37:53.625Z,18.25
2022-12-18T13:43:05.491Z,18.25
2022-12-18T13:45:33.724Z,18.25
2022-12-18T13:48:01.134Z,18.25
2022-12-18T13:50:35.470Z,18.26
2022-12-18T13:53:03.755Z,18.26
2022-12-18T13:58:15.271Z,18.25
2022-12-18T14:00:42.687Z,18.24
2022-12-18T14:03:09.331Z,18.23
2022-12-18T14:05:36.771Z,18.24
2022-12-18T14:08:05.183Z,18.22
2022-12-18T14:13:16.796Z,18.23
2022-12-18T14:15:45.189Z,18.24
2022-12-18T14:18:12.129Z,18.30
2022-12-18T14:20:39.518Z,18.43
2022-12-18T14:23:05.991Z,18.43
2022-12-18T14:28:27.353Z,18.53
2022-12-18T14:30:54.770Z,18.55
2022-12-18T14:33:22.204Z,18.52
2022-12-18T14:35:49.518Z,18.50
2022-12-18T14:38:15.995Z,18.53
2022-12-18T14:43:37.458Z,18.53
2022-12-18T14:46:05.320Z,18.60
2022-12-18T14:48:32.241Z,18.59
2022-12-18T14:50:58.688Z,18.57
2022-12-18T14:53:25.993Z,18.58
2022-12-18T14:58:48.745Z,18.60
2022-12-18T15:01:16.210Z,18.70
2022-12-18T15:03:43.199Z,18.79
2022-12-18T15:06:11.728Z,18.67
2022-12-18T15:08:39.060Z,18.55
2022-12-18T15:13:51.079Z,18.54
2022-12-18T15:16:17.596Z,18.49
2022-12-18T15:18:44.184Z,18.43
2022-12-18T15:21:12.472Z,18.55
2022-12-18T15:23:41.088Z,18.59
2022-12-18T15:28:54.666Z,18.82
2022-12-18T15:31:21.149Z,18.59
2022-12-18T15:33:47.655Z,18.50
2022-12-18T15:36:15.074Z,18.46
2022-12-18T15:38:41.437Z,18.49
2022-12-18T15:43:56.232Z,18.52
2022-12-18T15:46:22.766Z,18.52
2022-12-18T15:48:49.314Z,18.57
2022-12-18T15:51:15.808Z,18.57
2022-12-18T15:53:43.653Z,18.59
2022-12-18T15:58:55.584Z,18.50
2022-12-18T16:01:24.043Z,18.52
2022-12-18T16:03:50.724Z,18.57
2022-12-18T16:06:17.283Z,18.53
2022-12-18T16:08:44.725Z,18.55
2022-12-18T16:11:11.395Z,18.56
2022-12-18T16:13:38.972Z,18.51
2022-12-18T16:16:05.777Z,18.50
2022-12-18T16:18:33.152Z,18.45
2022-12-18T16:21:00.449Z,18.43
2022-12-18T16:23:27.877Z,18.44
2022-12-18T16:25:54.309Z,18.44
2022-12-18T16:28:21.664Z,18.45
2022-12-18T16:30:48.181Z,18.43
2022-12-18T16:33:15.658Z,18.55
2022-12-18T16:35:42.088Z,18.48
2022-12-18T16:38:09.330Z,18.45
2022-12-18T16:40:36.415Z,18.44
2022-12-18T16:43:02.900Z,18.47
2022-12-18T16:45:29.356Z,18.52
2022-12-18T16:47:57.846Z,18.54
2022-12-18T16:50:25.472Z,18.53
2022-12-18T16:52:52.881Z,18.51
2022-12-18T16:55:20.320Z,18.56
2022-12-18T16:57:47.633Z,18.65
2022-12-18T17:00:15.003Z,18.61
2022-12-18T17:02:42.075Z,18.61
2022-12-18T17:05:08.709Z,18.77
2022-12-18T17:07:35.159Z,18.72
2022-12-18T17:10:03.095Z,18.62
2022-12-18T17:12:30.578Z,18.66
2022-12-18T17:14:57.214Z,18.61
2022-12-18T17:17:24.696Z,18.58
2022-12-18T17:19:52.139Z,18.60
2022-12-18T17:22:18.660Z,18.66
2022-12-18T17:24:45.107Z,18.62
2022-12-18T17:27:11.760Z,18.57
2022-12-18T17:32:26.955Z,18.65
2022-12-18T17:34:54.337Z,18.63
2022-12-18T17:37:20.837Z,18.61
2022-12-18T17:39:48.219Z,18.63
2022-12-18T17:42:15.180Z,18.66
2022-12-18T17:47:38.019Z,18.72
2022-12-18T17:50:05.411Z,18.66
2022-12-18T17:52:32.873Z,18.56
2022-12-18T17:54:59.371Z,18.48
2022-12-18T17:57:26.780Z,18.47
2022-12-18T18:02:48.262Z,18.46
2022-12-18T18:05:15.080Z,18.44
2022-12-18T18:07:43.556Z,18.41
2022-12-18T18:10:10.033Z,18.41
2022-12-18T18:12:37.448Z,18.39
2022-12-18T18:17:49.666Z,18.38
2022-12-18T18:20:22.154Z,18.36
2022-12-18T18:22:49.965Z,18.34
2022-12-18T18:25:17.321Z,18.36
2022-12-18T18:27:44.641Z,18.34
2022-12-18T18:32:58.164Z,18.31
2022-12-18T18:35:52.986Z,18.32
2022-12-18T18:38:13.874Z,18.29
2022-12-18T18:40:41.212Z,18.29
2022-12-18T18:43:08.468Z,18.28
2022-12-18T18:48:29.770Z,18.28
2022-12-18T18:50:58.500Z,18.31
2022-12-18T18:53:24.978Z,18.31
2022-12-18T18:56:17.220Z,18.32
2022-12-18T18:58:37.892Z,18.31
2022-12-18T19:03:58.440Z,18.33
2022-12-18T19:06:26.131Z,18.31
2022-12-18T19:08:53.433Z,18.29
2022-12-18T19:11:20.831Z,18.30
2022-12-18T19:13:48.324Z,18.28
2022-12-18T19:19:01.889Z,18.27
2022-12-18T19:21:29.200Z,18.28
2022-12-18T19:23:57.850Z,18.28
2022-12-18T19:26:27.879Z,18.27
2022-12-18T19:28:55.857Z,18.27
2022-12-18T19:34:18.069Z,18.27
2022-12-18T19:36:44.853Z,18.26
2022-12-18T19:39:11.508Z,18.27
2022-12-18T19:41:38.021Z,18.27
2022-12-18T19:44:07.589Z,18.26
2022-12-18T19:49:21.132Z,18.26
2022-12-18T19:51:47.561Z,18.25
2022-12-18T19:54:17.930Z,18.24
2022-12-18T19:56:44.506Z,18.24
2022-12-18T19:59:10.964Z,18.24
2022-12-18T20:04:32.195Z,18.23
2022-12-18T20:06:59.715Z,18.23
2022-12-18T20:09:27.198Z,18.24
2022-12-18T20:11:53.977Z,18.25
2022-12-18T20:14:23.042Z,18.25
2022-12-18T20:19:35.287Z,18.22
2022-12-18T20:22:02.933Z,18.23
2022-12-18T20:24:30.412Z,18.22
2022-12-18T20:26:57.764Z,18.26
2022-12-18T20:29:25.288Z,18.32
2022-12-18T20:34:36.684Z,18.32
2022-12-18T20:37:03.882Z,18.33
2022-12-18T20:39:31.363Z,18.34
2022-12-18T20:41:57.896Z,18.34
2022-12-18T20:44:25.319Z,18.35
2022-12-18T20:49:37.659Z,18.36
2022-12-18T20:52:06.028Z,18.36
2022-12-18T20:54:32.484Z,18.70
2022-12-18T20:56:59.852Z,18.80
2022-12-18T20:59:26.311Z,18.78
2022-12-18T21:04:37.825Z,18.65
2022-12-18T21:07:04.261Z,18.71
2022-12-18T21:09:37.653Z,18.74
2022-12-18T21:12:06.095Z,18.66
2022-12-18T21:14:34.452Z,18.71
2022-12-18T21:19:46.688Z,18.65
2022-12-18T21:22:15.027Z,18.65
2022-12-18T21:24:41.523Z,18.63
2022-12-18T21:27:08.832Z,18.69
2022-12-18T21:29:37.037Z,18.65
2022-12-18T21:35:00.240Z,18.56
2022-12-18T21:37:29.486Z,18.59
2022-12-18T21:39:56.769Z,18.57
2022-12-18T21:42:25.154Z,18.58
2022-12-18T21:44:53.534Z,18.49
2022-12-18T21:50:06.076Z,18.56
2022-12-18T21:52:32.960Z,18.57
2022-12-18T21:55:03.289Z,18.54
2022-12-18T21:57:36.553Z,18.51
2022-12-18T22:00:05.663Z,18.50
2022-12-18T22:05:29.851Z,18.52
2022-12-18T22:07:59.876Z,18.48
2022-12-18T22:10:26.286Z,18.51
2022-12-18T22:12:55.098Z,18.51
2022-12-18T22:15:22.080Z,18.46
2022-12-18T22:20:35.382Z,18.52
2022-12-18T22:23:02.643Z,18.45
2022-12-18T22:25:32.696Z,18.40
2022-12-18T22:28:03.056Z,18.44
2022-12-18T22:30:29.569Z,18.46
2022-12-18T22:35:53.066Z,18.45
2022-12-18T22:38:19.529Z,18.42
2022-12-18T22:40:45.963Z,18.40
2022-12-18T22:43:14.254Z,18.42
2022-12-18T22:45:40.687Z,18.44
2022-12-18T22:51:01.500Z,18.43
2022-12-18T22:53:27.945Z,18.41
2022-12-18T22:55:57.126Z,18.47
2022-12-18T22:58:25.435Z,18.45
2022-12-18T23:00:54.598Z,18.47
2022-12-18T23:06:08.627Z,18.40
2022-12-18T23:08:36.916Z,18.40
2022-12-18T23:11:06.106Z,18.40
2022-12-18T23:13:32.608Z,18.44
2022-12-18T23:16:00.916Z,18.42
2022-12-18T23:21:13.348Z,18.40
2022-12-18T23:23:40.547Z,18.43
2022-12-18T23:26:06.909Z,18.40
2022-12-18T23:28:36.835Z,18.39
2022-12-18T23:31:06.458Z,18.40
2022-12-18T23:36:22.943Z,18.44
2022-12-18T23:38:49.356Z,18.39
2022-12-18T23:41:15.809Z,18.39
2022-12-18T23:43:42.227Z,18.36
2022-12-18T23:46:13.399Z,18.40
2022-12-18T23:51:35.720Z,18.39
2022-12-18T23:54:05.631Z,18.36
2022-12-18T23:56:32.860Z,18.39
2022-12-18T23:58:59.287Z,18.29
